createdAt,value
2019-04-07T00:00:58.711Z,84.74
2019-04-07T00:01:58.702Z,84.94
2019-04-07T00:02:58.688Z,85.55
2019-04-07T00:03:58.676Z,85.66
2019-04-07T00:05:10.145Z,85.86
2019-04-07T00:05:59.779Z,86.17
2019-04-07T00:06:58.799Z,86.68
2019-04-07T00:07:59.173Z,86.68
2019-04-07T00:08:58.619Z,86.27
2019-04-07T00:09:58.633Z,85.66
2019-04-07T00:10:58.940Z,85.55
2019-04-07T00:11:59.132Z,85.55
2019-04-07T00:12:58.578Z,85.35
2019-04-07T00:13:58.915Z,85.49
2019-04-07T00:14:58.578Z,85.66
2019-04-07T00:15:59.023Z,86.27
2019-04-07T00:16:58.531Z,85.97
2019-04-07T00:17:59.207Z,86.11
2019-04-07T00:18:58.554Z,86.17
2019-04-07T00:19:58.679Z,86.27
2019-04-07T00:20:58.548Z,86.32
2019-04-07T00:21:58.478Z,86.11
2019-04-07T00:22:58.478Z,86.21
2019-04-07T00:23:58.451Z,86.32
2019-04-07T00:24:58.462Z,86.32
2019-04-07T00:25:58.913Z,86.21
2019-04-07T00:26:58.420Z,86.32
2019-04-07T00:27:58.553Z,86.00
2019-04-07T00:28:58.730Z,86.11
2019-04-07T00:29:58.460Z,86.00
2019-04-07T00:30:58.392Z,86.11
2019-04-07T00:31:58.361Z,86.11
2019-04-07T00:32:58.447Z,86.21
2019-04-07T00:33:58.338Z,86.00
2019-04-07T00:34:58.607Z,86.15
2019-04-07T00:35:58.314Z,86.83
2019-04-07T00:36:58.823Z,87.45
2019-04-07T00:37:58.356Z,86.52
2019-04-07T00:38:58.294Z,86.32
2019-04-07T00:39:58.934Z,85.90
2019-04-07T00:40:58.257Z,86.42
2019-04-07T00:41:58.356Z,86.15
2019-04-07T00:42:58.362Z,85.53
2019-04-07T00:43:58.239Z,86.15
2019-04-07T00:44:58.691Z,86.25
2019-04-07T00:45:58.228Z,86.25
2019-04-07T00:46:58.644Z,87.01
2019-04-07T00:47:58.180Z,87.49
2019-04-07T00:48:58.169Z,87.49
2019-04-07T00:49:58.727Z,87.63
2019-04-07T00:50:58.172Z,87.69
2019-04-07T00:51:58.468Z,87.59
2019-04-07T00:52:58.131Z,86.40
2019-04-07T00:53:58.124Z,87.01
2019-04-07T00:54:58.787Z,87.49
2019-04-07T00:55:58.128Z,87.79
2019-04-07T00:56:58.079Z,87.69
2019-04-07T00:57:58.387Z,87.28
2019-04-07T00:58:58.054Z,87.38
2019-04-07T00:59:58.044Z,86.66
2019-04-07T01:00:58.816Z,86.60
2019-04-07T01:01:58.093Z,87.01
2019-04-07T01:02:58.293Z,87.22
2019-04-07T01:03:58.407Z,87.73
2019-04-07T01:04:58.373Z,87.94
2019-04-07T01:05:58.681Z,87.63
2019-04-07T01:06:57.974Z,86.91
2019-04-07T01:07:58.424Z,86.40
2019-04-07T01:08:57.950Z,86.70
2019-04-07T01:09:58.514Z,86.50
2019-04-07T01:10:58.058Z,86.91
2019-04-07T01:11:58.563Z,86.91
2019-04-07T01:12:57.900Z,87.01
2019-04-07T01:13:58.184Z,86.33
2019-04-07T01:14:57.872Z,86.02
2019-04-07T01:15:58.052Z,86.33
2019-04-07T01:16:58.310Z,87.84
2019-04-07T01:17:57.870Z,87.77
2019-04-07T01:18:57.971Z,88.18
2019-04-07T01:19:57.823Z,87.36
2019-04-07T01:20:58.333Z,87.98
2019-04-07T01:21:57.807Z,87.05
2019-04-07T01:22:57.821Z,87.57
2019-04-07T01:23:57.918Z,87.36
2019-04-07T01:24:58.384Z,87.87
2019-04-07T01:25:58.460Z,87.46
2019-04-07T01:26:57.746Z,87.87
2019-04-07T01:27:57.844Z,87.98
2019-04-07T01:28:58.141Z,87.57
2019-04-07T01:29:57.727Z,87.98
2019-04-07T01:30:57.919Z,88.08
2019-04-07T01:31:58.403Z,88.02
2019-04-07T01:32:57.673Z,87.77
2019-04-07T01:33:57.662Z,87.87
2019-04-07T01:34:58.073Z,87.51
2019-04-07T01:35:57.637Z,87.77
2019-04-07T01:36:58.369Z,87.67
2019-04-07T01:37:58.256Z,87.57
2019-04-07T01:38:57.607Z,87.81
2019-04-07T01:39:58.056Z,87.19
2019-04-07T01:40:57.588Z,87.60
2019-04-07T01:41:57.618Z,87.71
2019-04-07T01:42:57.560Z,88.02
2019-04-07T01:43:57.546Z,88.33
2019-04-07T01:44:57.565Z,87.60
2019-04-07T01:45:57.542Z,87.87
2019-04-07T01:46:58.127Z,87.71
2019-04-07T01:47:57.502Z,87.30
2019-04-07T01:48:57.531Z,87.81
2019-04-07T01:49:57.803Z,87.60
2019-04-07T01:50:57.469Z,87.92
2019-04-07T01:51:57.653Z,87.92
2019-04-07T01:52:57.980Z,87.60
2019-04-07T01:53:57.472Z,87.51
2019-04-07T01:54:57.542Z,87.51
2019-04-07T01:55:57.581Z,87.92
2019-04-07T01:56:58.041Z,88.23
2019-04-07T01:57:57.389Z,87.92
2019-04-07T01:58:57.396Z,87.92
2019-04-07T01:59:57.419Z,88.02
2019-04-07T02:00:57.587Z,88.02
2019-04-07T02:01:57.349Z,87.92
2019-04-07T02:02:57.354Z,87.60
2019-04-07T02:03:57.342Z,88.23
2019-04-07T02:04:57.969Z,87.92
2019-04-07T02:06:01.582Z,88.33
2019-04-07T02:06:58.293Z,88.02
2019-04-07T02:07:57.301Z,88.23
2019-04-07T02:08:57.277Z,88.23
2019-04-07T02:09:57.360Z,88.43
2019-04-07T02:10:57.242Z,88.70
2019-04-07T02:11:57.235Z,88.64
2019-04-07T02:12:57.855Z,88.90
2019-04-07T02:13:57.220Z,89.52
2019-04-07T02:14:57.518Z,89.36
2019-04-07T02:15:57.750Z,89.22
2019-04-07T02:16:57.785Z,89.31
2019-04-07T02:17:57.220Z,89.52
2019-04-07T02:18:57.152Z,90.45
2019-04-07T02:19:57.182Z,90.14
2019-04-07T02:20:57.643Z,89.83
2019-04-07T02:21:57.119Z,90.45
2019-04-07T02:22:57.395Z,90.96
2019-04-07T02:23:57.567Z,90.72
2019-04-07T02:24:57.572Z,91.95
2019-04-07T02:25:57.075Z,91.44
2019-04-07T02:26:57.647Z,91.53
2019-04-07T02:27:57.075Z,91.64
2019-04-07T02:28:57.216Z,90.88
2019-04-07T02:29:57.845Z,90.88
2019-04-07T02:30:57.366Z,91.19
2019-04-07T02:31:57.065Z,90.88
2019-04-07T02:32:58.130Z,90.88
2019-04-07T02:33:57.505Z,90.88
2019-04-07T02:34:57.476Z,90.78
2019-04-07T02:36:12.810Z,90.78
2019-04-07T02:36:58.288Z,90.78
2019-04-07T02:37:57.061Z,90.98
2019-04-07T02:38:56.929Z,90.88
2019-04-07T02:39:56.919Z,90.57
2019-04-07T02:40:56.903Z,91.08
2019-04-07T02:41:57.130Z,90.98
2019-04-07T02:42:57.544Z,91.70
2019-04-07T02:43:56.872Z,91.49
2019-04-07T02:44:57.304Z,91.39
2019-04-07T02:45:57.771Z,91.19
2019-04-07T02:46:56.922Z,91.60
2019-04-07T02:47:57.657Z,91.60
2019-04-07T02:48:57.765Z,91.29
2019-04-07T02:49:56.808Z,91.60
2019-04-07T02:50:57.126Z,91.74
2019-04-07T02:51:56.785Z,91.60
2019-04-07T02:52:57.223Z,91.39
2019-04-07T02:53:57.061Z,91.29
2019-04-07T02:54:57.300Z,91.49
2019-04-07T02:55:56.907Z,91.60
2019-04-07T02:56:56.739Z,91.53
2019-04-07T02:57:56.742Z,91.80
2019-04-07T02:58:56.706Z,91.74
2019-04-07T02:59:57.782Z,91.80
2019-04-07T03:00:57.690Z,91.49
2019-04-07T03:01:57.502Z,91.80
2019-04-07T03:02:56.659Z,91.85
2019-04-07T03:03:57.635Z,91.74
2019-04-07T03:04:56.824Z,91.53
2019-04-07T03:05:56.627Z,91.74
2019-04-07T03:06:56.874Z,91.53
2019-04-07T03:07:56.604Z,91.64
2019-04-07T03:08:57.177Z,91.33
2019-04-07T03:09:56.815Z,91.33
2019-04-07T03:10:57.031Z,91.74
2019-04-07T03:11:57.677Z,91.29
2019-04-07T03:12:57.462Z,91.53
2019-04-07T03:13:57.238Z,91.60
2019-04-07T03:14:56.524Z,91.19
2019-04-07T03:15:56.810Z,90.98
2019-04-07T03:16:56.502Z,90.98
2019-04-07T03:17:57.332Z,90.98
2019-04-07T03:18:56.647Z,90.57
2019-04-07T03:19:56.482Z,90.67
2019-04-07T03:20:56.457Z,90.88
2019-04-07T03:21:56.712Z,90.57
2019-04-07T03:22:56.436Z,89.85
2019-04-07T03:23:56.581Z,90.26
2019-04-07T03:24:56.991Z,89.44
2019-04-07T03:25:56.728Z,88.82
2019-04-07T03:26:56.600Z,89.03
2019-04-07T03:27:57.273Z,89.69
2019-04-07T03:28:56.405Z,89.23
2019-04-07T03:29:56.743Z,88.86
2019-04-07T03:30:58.523Z,89.54
2019-04-07T03:31:58.788Z,90.16
2019-04-07T03:32:58.001Z,90.88
2019-04-07T03:33:58.254Z,90.67
2019-04-07T03:34:58.183Z,90.36
2019-04-07T03:36:00.771Z,89.64
2019-04-07T03:37:25.832Z,90.26
2019-04-07T03:37:57.369Z,90.47
2019-04-07T03:38:56.292Z,90.36
2019-04-07T03:39:56.945Z,90.26
2019-04-07T03:40:56.951Z,90.67
2019-04-07T03:41:56.216Z,91.19
2019-04-07T03:42:56.472Z,90.47
2019-04-07T03:43:57.039Z,90.78
2019-04-07T03:44:56.671Z,90.26
2019-04-07T03:45:57.193Z,89.34
2019-04-07T03:46:57.194Z,89.28
2019-04-07T03:47:56.148Z,89.07
2019-04-07T03:48:56.162Z,88.96
2019-04-07T03:49:56.973Z,88.56
2019-04-07T03:50:56.908Z,88.35
2019-04-07T03:51:56.137Z,88.96
2019-04-07T03:52:56.486Z,88.80
2019-04-07T03:53:56.102Z,89.11
2019-04-07T03:54:57.112Z,89.42
2019-04-07T03:55:56.088Z,89.11
2019-04-07T03:56:56.523Z,89.42
2019-04-07T03:57:56.931Z,88.90
2019-04-07T03:58:56.030Z,88.59
2019-04-07T03:59:56.041Z,88.74
2019-04-07T04:00:56.295Z,88.95
2019-04-07T04:01:55.995Z,88.74
2019-04-07T04:02:56.770Z,88.84
2019-04-07T04:03:56.655Z,88.12
2019-04-07T04:04:55.992Z,88.23
2019-04-07T04:05:55.949Z,88.33
2019-04-07T04:06:56.766Z,88.53
2019-04-07T04:07:56.788Z,88.95
2019-04-07T04:08:56.136Z,89.09
2019-04-07T04:09:55.966Z,89.09
2019-04-07T04:10:56.663Z,89.19
2019-04-07T04:11:55.887Z,89.71
2019-04-07T04:12:56.486Z,90.01
2019-04-07T04:13:55.982Z,89.29
2019-04-07T04:14:56.796Z,88.89
2019-04-07T04:15:56.656Z,89.09
2019-04-07T04:16:56.486Z,88.57
2019-04-07T04:17:55.820Z,88.17
2019-04-07T04:18:56.583Z,88.26
2019-04-07T04:19:55.792Z,88.26
2019-04-07T04:20:55.930Z,87.99
2019-04-07T04:21:55.769Z,88.62
2019-04-07T04:22:55.780Z,88.51
2019-04-07T04:23:55.778Z,88.20
2019-04-07T04:24:55.771Z,88.82
2019-04-07T04:25:56.070Z,89.03
2019-04-07T04:26:55.713Z,89.23
2019-04-07T04:27:55.704Z,89.28
2019-04-07T04:28:56.578Z,88.86
2019-04-07T04:29:56.604Z,88.24
2019-04-07T04:30:56.672Z,88.24
2019-04-07T04:31:55.746Z,88.65
2019-04-07T04:32:55.645Z,88.76
2019-04-07T04:33:55.707Z,88.24
2019-04-07T04:34:56.231Z,88.45
2019-04-07T04:35:55.928Z,88.04
2019-04-07T04:36:56.295Z,88.56
2019-04-07T04:37:56.529Z,88.56
2019-04-07T04:38:55.636Z,88.70
2019-04-07T04:39:55.826Z,88.59
2019-04-07T04:40:55.595Z,88.80
2019-04-07T04:41:55.740Z,88.59
2019-04-07T04:42:55.532Z,88.80
2019-04-07T04:43:55.524Z,89.01
2019-04-07T04:44:55.565Z,90.51
2019-04-07T04:45:56.679Z,90.51
2019-04-07T04:46:56.148Z,89.28
2019-04-07T04:47:56.192Z,89.38
2019-04-07T04:48:55.803Z,89.28
2019-04-07T04:49:55.456Z,88.65
2019-04-07T04:50:56.029Z,88.76
2019-04-07T04:51:56.066Z,88.45
2019-04-07T04:52:55.427Z,88.59
2019-04-07T04:53:56.296Z,88.35
2019-04-07T04:54:55.403Z,88.70
2019-04-07T04:55:55.679Z,89.07
2019-04-07T04:56:55.379Z,89.11
2019-04-07T04:57:55.371Z,89.28
2019-04-07T04:58:55.353Z,89.42
2019-04-07T04:59:55.961Z,89.32
2019-04-07T05:00:55.440Z,89.22
2019-04-07T05:01:55.426Z,89.11
2019-04-07T05:02:56.037Z,88.80
2019-04-07T05:03:55.903Z,89.11
2019-04-07T05:04:56.125Z,88.39
2019-04-07T05:05:55.495Z,88.70
2019-04-07T05:06:55.264Z,89.15
2019-04-07T05:08:00.778Z,89.36
2019-04-07T05:08:56.547Z,89.56
2019-04-07T05:09:56.663Z,89.52
2019-04-07T05:10:55.247Z,90.39
2019-04-07T05:11:55.221Z,90.55
2019-04-07T05:12:55.198Z,90.59
2019-04-07T05:13:55.493Z,90.45
2019-04-07T05:14:55.177Z,89.73
2019-04-07T05:15:55.192Z,89.83
2019-04-07T05:16:55.961Z,89.32
2019-04-07T05:17:55.152Z,89.52
2019-04-07T05:18:55.148Z,89.42
2019-04-07T05:19:55.118Z,89.52
2019-04-07T05:20:55.324Z,89.52
2019-04-07T05:21:55.132Z,89.73
2019-04-07T05:22:55.084Z,89.83
2019-04-07T05:23:55.072Z,88.80
2019-04-07T05:24:55.560Z,89.32
2019-04-07T05:25:55.687Z,89.01
2019-04-07T05:26:55.176Z,89.22
2019-04-07T05:27:55.826Z,89.36
2019-04-07T05:28:55.090Z,88.80
2019-04-07T05:29:55.616Z,89.56
2019-04-07T05:30:54.993Z,89.83
2019-04-07T05:31:55.713Z,89.67
2019-04-07T05:32:55.570Z,89.67
2019-04-07T05:33:55.372Z,89.83
2019-04-07T05:34:55.590Z,89.67
2019-04-07T05:35:54.943Z,89.46
2019-04-07T05:36:55.326Z,89.32
2019-04-07T05:38:02.709Z,89.01
2019-04-07T05:38:56.289Z,89.05
2019-04-07T05:39:55.036Z,89.52
2019-04-07T05:40:55.348Z,90.76
2019-04-07T05:41:54.898Z,91.75
2019-04-07T05:42:55.514Z,91.69
2019-04-07T05:43:54.845Z,91.64
2019-04-07T05:44:55.177Z,90.86
2019-04-07T05:45:55.478Z,89.69
2019-04-07T05:46:54.901Z,89.28
2019-04-07T05:47:55.410Z,89.17
2019-04-07T05:48:55.479Z,89.01
2019-04-07T05:49:57.441Z,89.48
2019-04-07T05:50:57.928Z,89.28
2019-04-07T05:51:55.377Z,89.48
2019-04-07T05:52:54.746Z,90.51
2019-04-07T05:53:54.735Z,90.31
2019-04-07T05:54:54.725Z,90.20
2019-04-07T05:55:56.077Z,90.51
2019-04-07T05:56:58.762Z,90.06
2019-04-07T05:57:55.782Z,91.30
2019-04-07T05:58:54.942Z,91.71
2019-04-07T05:59:54.906Z,92.08
2019-04-07T06:00:54.806Z,92.38
2019-04-07T06:01:59.285Z,92.59
2019-04-07T06:02:56.039Z,92.76
2019-04-07T06:03:54.680Z,93.37
2019-04-07T06:04:54.628Z,93.27
2019-04-07T06:05:55.006Z,92.96
2019-04-07T06:06:56.203Z,93.27
2019-04-07T06:07:54.574Z,93.06
2019-04-07T06:08:55.091Z,92.55
2019-04-07T06:09:54.554Z,93.02
2019-04-07T06:10:59.948Z,92.82
2019-04-07T06:11:55.536Z,92.50
2019-04-07T06:12:55.326Z,92.82
2019-04-07T06:13:54.514Z,92.30
2019-04-07T06:14:55.160Z,92.40
2019-04-07T06:15:54.489Z,91.78
2019-04-07T06:16:55.733Z,91.89
2019-04-07T06:17:58.780Z,91.64
2019-04-07T06:18:55.581Z,91.58
2019-04-07T06:19:54.443Z,91.47
2019-04-07T06:20:54.451Z,91.44
2019-04-07T06:21:54.420Z,91.27
2019-04-07T06:22:54.694Z,91.74
2019-04-07T06:23:58.557Z,91.85
2019-04-07T06:24:56.014Z,91.13
2019-04-07T06:25:57.141Z,91.02
2019-04-07T06:26:54.386Z,90.61
2019-04-07T06:27:54.380Z,90.81
2019-04-07T06:28:58.218Z,90.98
2019-04-07T06:29:59.625Z,90.67
2019-04-07T06:30:55.318Z,90.88
2019-04-07T06:31:54.892Z,90.88
2019-04-07T06:32:54.720Z,90.78
2019-04-07T06:33:55.133Z,90.36
2019-04-07T06:34:54.287Z,90.47
2019-04-07T06:35:55.418Z,90.57
2019-04-07T06:36:55.525Z,90.32
2019-04-07T06:37:56.889Z,90.42
2019-04-07T06:38:54.777Z,90.42
2019-04-07T06:39:54.816Z,90.42
2019-04-07T06:40:57.110Z,90.53
2019-04-07T06:41:54.198Z,90.32
2019-04-07T06:42:54.523Z,89.60
2019-04-07T06:44:02.792Z,90.12
2019-04-07T06:44:55.369Z,90.08
2019-04-07T06:45:54.971Z,90.12
2019-04-07T06:46:58.528Z,89.70
2019-04-07T06:47:55.268Z,88.95
2019-04-07T06:48:54.144Z,88.95
2019-04-07T06:49:54.105Z,89.04
2019-04-07T06:50:58.257Z,88.84
2019-04-07T06:51:54.474Z,88.90
2019-04-07T06:52:54.237Z,88.80
2019-04-07T06:53:54.085Z,88.70
2019-04-07T06:54:56.223Z,88.90
2019-04-07T06:55:54.079Z,88.49
2019-04-07T06:56:54.031Z,88.18
2019-04-07T06:57:54.013Z,88.08
2019-04-07T06:58:54.751Z,88.08
2019-04-07T06:59:53.999Z,88.29
2019-04-07T07:00:55.904Z,87.77
2019-04-07T07:01:58.094Z,88.18
2019-04-07T07:02:55.378Z,87.98
2019-04-07T07:03:53.975Z,87.88
2019-04-07T07:04:54.016Z,87.84
2019-04-07T07:05:53.927Z,88.14
2019-04-07T07:06:53.976Z,87.94
2019-04-07T07:07:54.201Z,88.04
2019-04-07T07:08:56.413Z,88.14
2019-04-07T07:09:56.656Z,88.04
2019-04-07T07:10:54.210Z,88.14
2019-04-07T07:11:54.034Z,87.32
2019-04-07T07:12:53.846Z,87.73
2019-04-07T07:13:54.123Z,86.87
2019-04-07T07:14:53.904Z,87.08
2019-04-07T07:15:54.072Z,86.77
2019-04-07T07:16:54.469Z,87.45
2019-04-07T07:17:56.129Z,86.93
2019-04-07T07:18:56.042Z,87.04
2019-04-07T07:19:56.633Z,85.91
2019-04-07T07:20:53.883Z,85.80
2019-04-07T07:21:53.747Z,85.91
2019-04-07T07:22:53.739Z,85.46
2019-04-07T07:23:53.751Z,85.36
2019-04-07T07:24:58.011Z,84.74
2019-04-07T07:25:55.463Z,84.95
2019-04-07T07:26:53.949Z,84.91
2019-04-07T07:27:53.774Z,84.84
2019-04-07T07:28:54.318Z,85.11
2019-04-07T07:29:54.685Z,84.70
2019-04-07T07:30:53.912Z,84.29
2019-04-07T07:31:59.758Z,83.98
2019-04-07T07:32:55.253Z,83.27
2019-04-07T07:33:54.036Z,83.68
2019-04-07T07:34:54.173Z,82.65
2019-04-07T07:35:53.686Z,83.33
2019-04-07T07:36:56.615Z,83.44
2019-04-07T07:37:56.653Z,83.13
2019-04-07T07:39:00.507Z,83.13
2019-04-07T07:39:55.186Z,83.19
2019-04-07T07:40:53.531Z,83.33
2019-04-07T07:41:54.018Z,83.39
2019-04-07T07:42:56.664Z,83.70
2019-04-07T07:43:53.615Z,84.11
2019-04-07T07:44:53.642Z,83.87
2019-04-07T07:45:53.475Z,83.87
2019-04-07T07:46:53.793Z,83.56
2019-04-07T07:47:54.848Z,83.42
2019-04-07T07:48:57.052Z,82.91
2019-04-07T07:49:53.684Z,83.11
2019-04-07T07:50:53.754Z,82.40
2019-04-07T07:51:53.404Z,82.50
2019-04-07T07:52:54.681Z,81.65
2019-04-07T07:53:57.142Z,82.15
2019-04-07T07:54:55.194Z,80.83
2019-04-07T07:55:53.381Z,80.73
2019-04-07T07:56:53.346Z,80.62
2019-04-07T07:57:56.766Z,80.69
2019-04-07T07:58:55.061Z,80.48
2019-04-07T07:59:53.438Z,81.20
2019-04-07T08:00:53.357Z,80.38
2019-04-07T08:01:53.481Z,79.25
2019-04-07T08:02:53.832Z,79.12
2019-04-07T08:03:55.303Z,79.43
2019-04-07T08:04:56.769Z,78.91
2019-04-07T08:05:54.247Z,79.73
2019-04-07T08:06:53.437Z,79.39
2019-04-07T08:07:53.985Z,79.28
2019-04-07T08:08:53.702Z,79.39
2019-04-07T08:09:54.445Z,79.35
2019-04-07T08:10:56.187Z,78.74
2019-04-07T08:11:53.183Z,78.74
2019-04-07T08:12:53.225Z,78.53
2019-04-07T08:13:53.616Z,78.74
2019-04-07T08:14:56.162Z,77.82
2019-04-07T08:15:54.605Z,77.41
2019-04-07T08:16:53.188Z,77.37
2019-04-07T08:17:53.174Z,77.48
2019-04-07T08:18:53.146Z,77.24
2019-04-07T08:19:53.148Z,77.44
2019-04-07T08:20:53.335Z,77.44
2019-04-07T08:21:53.092Z,76.42
2019-04-07T08:22:53.906Z,76.32
2019-04-07T08:23:53.514Z,76.42
2019-04-07T08:24:53.493Z,76.49
2019-04-07T08:25:55.858Z,76.59
2019-04-07T08:26:56.338Z,76.59
2019-04-07T08:27:53.172Z,76.18
2019-04-07T08:28:53.374Z,76.18
2019-04-07T08:29:53.533Z,76.25
2019-04-07T08:30:52.994Z,76.35
2019-04-07T08:31:55.292Z,76.25
2019-04-07T08:32:53.306Z,76.35
2019-04-07T08:33:53.711Z,76.56
2019-04-07T08:34:52.977Z,76.11
2019-04-07T08:35:54.863Z,74.89
2019-04-07T08:36:53.075Z,74.69
2019-04-07T08:37:53.440Z,73.67
2019-04-07T08:38:55.761Z,73.74
2019-04-07T08:39:55.802Z,73.74
2019-04-07T08:40:54.899Z,73.02
2019-04-07T08:41:52.950Z,73.54
2019-04-07T08:42:52.832Z,73.54
2019-04-07T08:43:55.447Z,73.23
2019-04-07T08:44:52.809Z,73.23
2019-04-07T08:45:53.593Z,73.63
2019-04-07T08:46:52.951Z,72.21
2019-04-07T08:47:53.643Z,73.54
2019-04-07T08:48:54.298Z,72.89
2019-04-07T08:49:55.376Z,72.58
2019-04-07T08:50:52.897Z,72.58
2019-04-07T08:51:52.762Z,72.69
2019-04-07T08:52:53.218Z,71.16
2019-04-07T08:53:52.758Z,70.42
2019-04-07T08:54:53.509Z,69.30
2019-04-07T08:55:54.702Z,70.01
2019-04-07T08:56:54.186Z,70.11
2019-04-07T08:57:52.684Z,68.25
2019-04-07T08:58:53.204Z,67.33
2019-04-07T08:59:52.794Z,66.32
2019-04-07T09:00:53.890Z,66.39
2019-04-07T09:01:54.235Z,66.60
2019-04-07T09:03:01.758Z,66.80
2019-04-07T09:03:54.238Z,66.90
2019-04-07T09:04:52.628Z,66.60
2019-04-07T09:05:56.553Z,66.36
2019-04-07T09:06:52.564Z,66.56
2019-04-07T09:07:52.880Z,66.86
2019-04-07T09:08:53.163Z,67.07
2019-04-07T09:09:52.644Z,65.95
2019-04-07T09:10:52.660Z,65.95
2019-04-07T09:11:54.132Z,66.46
2019-04-07T09:12:52.609Z,65.65
2019-04-07T09:13:52.636Z,65.04
2019-04-07T09:14:52.463Z,66.23
2019-04-07T09:15:53.337Z,66.26
2019-04-07T09:16:54.826Z,65.92
2019-04-07T09:17:53.160Z,64.70
2019-04-07T09:19:00.506Z,65.82
2019-04-07T09:19:54.720Z,66.13
2019-04-07T09:20:52.935Z,65.79
2019-04-07T09:21:52.832Z,64.27
2019-04-07T09:22:54.804Z,64.67
2019-04-07T09:23:52.360Z,63.73
2019-04-07T09:24:53.157Z,63.32
2019-04-07T09:25:52.338Z,63.83
2019-04-07T09:26:52.442Z,63.50
2019-04-07T09:27:52.349Z,63.09
2019-04-07T09:28:55.482Z,63.09
2019-04-07T09:29:52.361Z,63.50
2019-04-07T09:30:52.532Z,62.96
2019-04-07T09:31:52.974Z,61.75
2019-04-07T09:32:52.259Z,62.86
2019-04-07T09:33:52.832Z,62.35
2019-04-07T09:34:53.972Z,60.84
2019-04-07T09:35:54.723Z,61.24
2019-04-07T09:36:52.993Z,61.35
2019-04-07T09:37:54.079Z,61.72
2019-04-07T09:38:52.382Z,60.81
2019-04-07T09:39:58.536Z,60.30
2019-04-07T09:40:53.179Z,59.59
2019-04-07T09:41:54.740Z,59.16
2019-04-07T09:42:52.952Z,59.39
2019-04-07T09:43:52.887Z,60.38
2019-04-07T09:44:52.885Z,60.78
2019-04-07T09:45:52.893Z,59.03
2019-04-07T09:46:52.114Z,58.73
2019-04-07T09:47:52.115Z,57.31
2019-04-07T09:48:52.873Z,58.33
2019-04-07T09:49:56.135Z,58.63
2019-04-07T09:50:55.174Z,55.60
2019-04-07T09:51:52.807Z,56.58
2019-04-07T09:52:52.068Z,57.29
2019-04-07T09:53:52.245Z,57.59
2019-04-07T09:54:55.179Z,58.00
2019-04-07T09:55:55.578Z,57.39
2019-04-07T09:56:52.995Z,57.29
2019-04-07T09:57:52.676Z,55.54
2019-04-07T09:58:51.978Z,55.74
2019-04-07T09:59:54.205Z,55.24
2019-04-07T10:00:55.540Z,55.24
2019-04-07T10:01:52.929Z,55.85
2019-04-07T10:02:51.943Z,54.41
2019-04-07T10:03:51.916Z,55.11
2019-04-07T10:04:51.904Z,56.12
2019-04-07T10:05:51.885Z,55.09
2019-04-07T10:06:51.874Z,55.11
2019-04-07T10:07:51.930Z,54.81
2019-04-07T10:08:52.230Z,54.99
2019-04-07T10:10:03.587Z,55.29
2019-04-07T10:10:52.841Z,55.59
2019-04-07T10:11:51.946Z,54.89
2019-04-07T10:12:51.831Z,53.55
2019-04-07T10:13:51.795Z,51.23
2019-04-07T10:14:51.784Z,52.51
2019-04-07T10:15:51.771Z,52.82
2019-04-07T10:16:51.781Z,53.52
2019-04-07T10:17:51.871Z,53.22
2019-04-07T10:18:52.198Z,53.50
2019-04-07T10:19:51.729Z,52.69
2019-04-07T10:20:51.753Z,52.26
2019-04-07T10:21:51.704Z,52.26
2019-04-07T10:22:51.728Z,52.57
2019-04-07T10:23:51.681Z,52.57
2019-04-07T10:24:51.798Z,51.16
2019-04-07T10:25:51.808Z,51.64
2019-04-07T10:26:51.968Z,51.34
2019-04-07T10:27:52.030Z,51.64
2019-04-07T10:28:51.816Z,51.81
2019-04-07T10:29:52.448Z,51.71
2019-04-07T10:30:51.796Z,51.18
2019-04-07T10:31:51.889Z,51.29
2019-04-07T10:32:52.055Z,49.37
2019-04-07T10:33:51.593Z,50.28
2019-04-07T10:34:51.573Z,50.98
2019-04-07T10:35:52.458Z,50.76
2019-04-07T10:36:51.535Z,49.85
2019-04-07T10:37:53.020Z,49.73
2019-04-07T10:38:51.537Z,49.25
2019-04-07T10:39:51.501Z,50.03
2019-04-07T10:40:51.634Z,49.02
2019-04-07T10:41:51.480Z,49.02
2019-04-07T10:42:51.492Z,48.93
2019-04-07T10:43:51.492Z,50.03
2019-04-07T10:44:52.121Z,50.13
2019-04-07T10:45:51.437Z,48.72
2019-04-07T10:46:51.547Z,48.72
2019-04-07T10:47:52.116Z,49.02
2019-04-07T10:48:51.449Z,47.72
2019-04-07T10:49:58.563Z,48.20
2019-04-07T10:50:52.427Z,47.90
2019-04-07T10:51:51.381Z,46.77
2019-04-07T10:52:51.481Z,46.69
2019-04-07T10:53:51.420Z,46.89
2019-04-07T10:54:51.334Z,45.47
2019-04-07T10:55:52.106Z,47.07
2019-04-07T10:56:51.732Z,46.35
2019-04-07T10:57:51.640Z,47.05
2019-04-07T10:58:51.785Z,46.23
2019-04-07T10:59:51.355Z,45.62
2019-04-07T11:00:51.270Z,45.20
2019-04-07T11:01:51.365Z,44.70
2019-04-07T11:02:54.851Z,45.70
2019-04-07T11:03:54.547Z,44.30
2019-04-07T11:04:51.223Z,44.28
2019-04-07T11:05:51.232Z,44.08
2019-04-07T11:06:51.751Z,41.97
2019-04-07T11:07:51.286Z,43.26
2019-04-07T11:08:51.872Z,42.25
2019-04-07T11:09:52.067Z,40.45
2019-04-07T11:10:51.318Z,40.65
2019-04-07T11:11:51.278Z,40.85
2019-04-07T11:12:51.386Z,37.37
2019-04-07T11:13:51.792Z,39.45
2019-04-07T11:14:51.287Z,38.65
2019-04-07T11:15:51.968Z,40.15
2019-04-07T11:16:51.165Z,39.75
2019-04-07T11:17:51.567Z,39.13
2019-04-07T11:18:51.790Z,38.63
2019-04-07T11:19:51.339Z,38.23
2019-04-07T11:20:51.045Z,37.83
2019-04-07T11:21:51.714Z,37.23
2019-04-07T11:22:52.037Z,37.31
2019-04-07T11:23:51.016Z,36.29
2019-04-07T11:24:51.571Z,37.29
2019-04-07T11:25:51.320Z,37.29
2019-04-07T11:26:51.701Z,38.38
2019-04-07T11:27:51.138Z,37.88
2019-04-07T11:28:50.965Z,36.78
2019-04-07T11:29:51.619Z,35.60
2019-04-07T11:30:50.992Z,36.49
2019-04-07T11:31:51.576Z,36.38
2019-04-07T11:32:50.914Z,35.98
2019-04-07T11:33:51.058Z,36.76
2019-04-07T11:34:51.266Z,36.46
2019-04-07T11:35:51.067Z,35.66
2019-04-07T11:36:51.720Z,35.86
2019-04-07T11:37:51.713Z,35.14
2019-04-07T11:38:51.579Z,36.04
2019-04-07T11:39:51.089Z,34.25
2019-04-07T11:40:51.416Z,35.05
2019-04-07T11:41:51.481Z,34.96
2019-04-07T11:42:50.840Z,35.96
2019-04-07T11:43:50.793Z,36.46
2019-04-07T11:44:51.470Z,35.85
2019-04-07T11:45:58.527Z,34.84
2019-04-07T11:46:51.953Z,34.44
2019-04-07T11:47:50.960Z,33.53
2019-04-07T11:48:51.456Z,35.53
2019-04-07T11:49:50.749Z,34.43
2019-04-07T11:50:50.722Z,35.01
2019-04-07T11:51:50.696Z,33.81
2019-04-07T11:52:51.550Z,33.90
2019-04-07T11:53:51.274Z,34.39
2019-04-07T11:54:51.138Z,33.40
2019-04-07T11:55:51.040Z,32.90
2019-04-07T11:56:50.640Z,33.68
2019-04-07T11:58:02.938Z,32.77
2019-04-07T11:58:51.622Z,34.16
2019-04-07T11:59:51.291Z,33.78
2019-04-07T12:00:51.385Z,32.29
2019-04-07T12:01:51.016Z,33.30
2019-04-07T12:02:51.835Z,33.72
2019-04-07T12:03:53.262Z,34.11
2019-04-07T12:04:50.995Z,33.03
2019-04-07T12:05:50.663Z,34.05
2019-04-07T12:06:50.533Z,34.93
2019-04-07T12:07:53.890Z,34.23
2019-04-07T12:08:51.508Z,33.23
2019-04-07T12:09:51.018Z,33.95
2019-04-07T12:10:58.558Z,33.73
2019-04-07T12:11:51.474Z,34.73
2019-04-07T12:12:50.468Z,33.43
2019-04-07T12:13:50.956Z,33.73
2019-04-07T12:14:52.461Z,34.21
2019-04-07T12:15:50.846Z,32.22
2019-04-07T12:16:50.471Z,32.52
2019-04-07T12:17:51.241Z,33.70
2019-04-07T12:18:52.380Z,33.10
2019-04-07T12:19:54.548Z,33.08
2019-04-07T12:20:51.868Z,31.89
2019-04-07T12:21:51.127Z,33.28
2019-04-07T12:22:50.354Z,32.39
2019-04-07T12:23:52.778Z,32.59
2019-04-07T12:24:50.498Z,32.37
2019-04-07T12:25:50.349Z,32.97
2019-04-07T12:26:50.633Z,33.18
2019-04-07T12:27:50.572Z,33.17
2019-04-07T12:28:51.204Z,33.88
2019-04-07T12:29:50.515Z,33.28
2019-04-07T12:30:51.183Z,32.29
2019-04-07T12:31:51.004Z,33.18
2019-04-07T12:32:50.852Z,31.59
2019-04-07T12:33:50.659Z,31.87
2019-04-07T12:34:50.936Z,31.97
2019-04-07T12:35:54.280Z,32.27
2019-04-07T12:36:50.205Z,32.06
2019-04-07T12:37:50.211Z,33.15
2019-04-07T12:38:50.984Z,32.87
2019-04-07T12:39:51.975Z,32.86
2019-04-07T12:40:51.021Z,32.45
2019-04-07T12:41:50.144Z,33.15
2019-04-07T12:42:50.312Z,32.27
2019-04-07T12:43:50.810Z,32.77
2019-04-07T12:44:50.831Z,32.97
2019-04-07T12:45:50.126Z,32.65
2019-04-07T12:46:50.972Z,32.56
2019-04-07T12:47:50.088Z,32.06
2019-04-07T12:48:50.139Z,32.86
2019-04-07T12:49:50.070Z,33.05
2019-04-07T12:50:50.929Z,32.95
2019-04-07T12:51:53.360Z,32.14
2019-04-07T12:52:51.819Z,32.14